sensor_id;sensor_type;location;lat;lon;timestamp;P1;durP1;ratioP1;P2;durP2;ratioP2
61640;SDS011;62201;49.966;8.342;2022-11-14T00:00:29;18.07;;;13.53;;
61640;SDS011;62201;49.966;8.342;2022-11-14T00:02:59;19.03;;;13.17;;
61640;SDS011;62201;49.966;8.342;2022-11-14T00:05:25;16.57;;;11.57;;
61640;SDS011;62201;49.966;8.342;2022-11-14T00:07:51;18.17;;;13.00;;
61640;SDS011;62201;49.966;8.342;2022-11-14T00:10:17;16.63;;;11.40;;
61640;SDS011;62201;49.966;8.342;2022-11-14T00:12:43;15.87;;;11.27;;
61640;SDS011;62201;49.966;8.342;2022-11-14T00:15:08;15.97;;;10.60;;
61640;SDS011;62201;49.966;8.342;2022-11-14T00:17:35;15.20;;;10.37;;
61640;SDS011;62201;49.966;8.342;2022-11-14T00:20:00;14.87;;;10.87;;
61640;SDS011;62201;49.966;8.342;2022-11-14T00:22:26;17.23;;;11.23;;
61640;SDS011;62201;49.966;8.342;2022-11-14T00:24:51;16.33;;;11.03;;
61640;SDS011;62201;49.966;8.342;2022-11-14T00:27:17;17.47;;;10.97;;
61640;SDS011;62201;49.966;8.342;2022-11-14T00:29:42;17.00;;;10.83;;
61640;SDS011;62201;49.966;8.342;2022-11-14T00:32:08;17.10;;;12.10;;
61640;SDS011;62201;49.966;8.342;2022-11-14T00:34:33;21.30;;;14.07;;
61640;SDS011;62201;49.966;8.342;2022-11-14T00:36:58;21.80;;;14.67;;
61640;SDS011;62201;49.966;8.342;2022-11-14T00:39:24;22.40;;;15.03;;
61640;SDS011;62201;49.966;8.342;2022-11-14T00:41:50;19.13;;;12.83;;
61640;SDS011;62201;49.966;8.342;2022-11-14T00:44:15;21.07;;;14.80;;
61640;SDS011;62201;49.966;8.342;2022-11-14T00:46:41;22.67;;;14.97;;
61640;SDS011;62201;49.966;8.342;2022-11-14T00:49:06;30.17;;;16.70;;
61640;SDS011;62201;49.966;8.342;2022-11-14T00:51:32;25.77;;;16.33;;
61640;SDS011;62201;49.966;8.342;2022-11-14T00:53:57;43.27;;;21.20;;
61640;SDS011;62201;49.966;8.342;2022-11-14T00:56:22;43.73;;;20.87;;
61640;SDS011;62201;49.966;8.342;2022-11-14T00:58:48;34.53;;;20.37;;
61640;SDS011;62201;49.966;8.342;2022-11-14T01:01:13;59.20;;;24.47;;
61640;SDS011;62201;49.966;8.342;2022-11-14T01:03:39;196.10;;;30.10;;
61640;SDS011;62201;49.966;8.342;2022-11-14T01:06:05;68.37;;;27.20;;
61640;SDS011;62201;49.966;8.342;2022-11-14T01:08:32;196.03;;;34.93;;
61640;SDS011;62201;49.966;8.342;2022-11-14T01:10:57;228.87;;;39.93;;
61640;SDS011;62201;49.966;8.342;2022-11-14T01:13:24;330.23;;;48.47;;
61640;SDS011;62201;49.966;8.342;2022-11-14T01:15:50;208.67;;;42.33;;
61640;SDS011;62201;49.966;8.342;2022-11-14T01:18:17;359.80;;;45.80;;
61640;SDS011;62201;49.966;8.342;2022-11-14T01:20:44;102.33;;;32.93;;
61640;SDS011;62201;49.966;8.342;2022-11-14T01:23:15;324.30;;;46.37;;
61640;SDS011;62201;49.966;8.342;2022-11-14T01:25:41;132.93;;;36.33;;
61640;SDS011;62201;49.966;8.342;2022-11-14T01:28:08;441.87;;;57.07;;
61640;SDS011;62201;49.966;8.342;2022-11-14T01:30:35;467.47;;;60.43;;
61640;SDS011;62201;49.966;8.342;2022-11-14T01:33:01;504.67;;;59.40;;
61640;SDS011;62201;49.966;8.342;2022-11-14T01:35:26;327.73;;;50.90;;
61640;SDS011;62201;49.966;8.342;2022-11-14T01:37:52;413.03;;;53.20;;
61640;SDS011;62201;49.966;8.342;2022-11-14T01:40:17;537.60;;;65.87;;
61640;SDS011;62201;49.966;8.342;2022-11-14T01:43:08;450.87;;;57.87;;
61640;SDS011;62201;49.966;8.342;2022-11-14T01:48:29;492.43;;;62.53;;
61640;SDS011;62201;49.966;8.342;2022-11-14T01:51:00;389.50;;;55.87;;
61640;SDS011;62201;49.966;8.342;2022-11-14T01:53:32;382.53;;;57.70;;
61640;SDS011;62201;49.966;8.342;2022-11-14T01:55:59;617.20;;;70.90;;
61640;SDS011;62201;49.966;8.342;2022-11-14T01:58:27;542.43;;;64.30;;
61640;SDS011;62201;49.966;8.342;2022-11-14T02:00:54;768.30;;;83.10;;
61640;SDS011;62201;49.966;8.342;2022-11-14T02:03:21;571.23;;;72.63;;
61640;SDS011;62201;49.966;8.342;2022-11-14T02:05:46;851.80;;;88.67;;
61640;SDS011;62201;49.966;8.342;2022-11-14T02:08:13;791.07;;;82.40;;
61640;SDS011;62201;49.966;8.342;2022-11-14T02:10:40;696.30;;;70.53;;
61640;SDS011;62201;49.966;8.342;2022-11-14T02:13:06;752.73;;;81.03;;
61640;SDS011;62201;49.966;8.342;2022-11-14T02:15:32;587.13;;;76.17;;
61640;SDS011;62201;49.966;8.342;2022-11-14T02:17:58;777.77;;;85.20;;
61640;SDS011;62201;49.966;8.342;2022-11-14T02:20:25;754.07;;;75.97;;
61640;SDS011;62201;49.966;8.342;2022-11-14T02:22:53;941.43;;;86.37;;
61640;SDS011;62201;49.966;8.342;2022-11-14T02:25:18;684.13;;;74.90;;
61640;SDS011;62201;49.966;8.342;2022-11-14T02:27:44;620.53;;;74.20;;
61640;SDS011;62201;49.966;8.342;2022-11-14T02:30:11;587.03;;;68.87;;
61640;SDS011;62201;49.966;8.342;2022-11-14T02:32:40;582.50;;;71.80;;
61640;SDS011;62201;49.966;8.342;2022-11-14T02:35:06;692.40;;;84.40;;
61640;SDS011;62201;49.966;8.342;2022-11-14T02:37:31;532.67;;;61.90;;
61640;SDS011;62201;49.966;8.342;2022-11-14T02:39:57;425.10;;;57.13;;
61640;SDS011;62201;49.966;8.342;2022-11-14T02:42:22;646.20;;;77.20;;
61640;SDS011;62201;49.966;8.342;2022-11-14T02:44:48;622.60;;;77.00;;
61640;SDS011;62201;49.966;8.342;2022-11-14T02:47:13;574.07;;;69.93;;
61640;SDS011;62201;49.966;8.342;2022-11-14T02:49:38;838.43;;;84.20;;
61640;SDS011;62201;49.966;8.342;2022-11-14T02:52:04;751.23;;;84.87;;
61640;SDS011;62201;49.966;8.342;2022-11-14T02:54:29;724.83;;;77.33;;
61640;SDS011;62201;49.966;8.342;2022-11-14T02:56:54;463.23;;;60.10;;
61640;SDS011;62201;49.966;8.342;2022-11-14T02:59:20;629.27;;;75.60;;
61640;SDS011;62201;49.966;8.342;2022-11-14T03:01:45;369.40;;;55.27;;
61640;SDS011;62201;49.966;8.342;2022-11-14T03:04:10;748.57;;;81.67;;
61640;SDS011;62201;49.966;8.342;2022-11-14T03:06:36;398.27;;;52.47;;
61640;SDS011;62201;49.966;8.342;2022-11-14T03:09:01;453.70;;;57.70;;
61640;SDS011;62201;49.966;8.342;2022-11-14T03:11:27;406.10;;;53.20;;
61640;SDS011;62201;49.966;8.342;2022-11-14T03:13:52;337.37;;;49.90;;
61640;SDS011;62201;49.966;8.342;2022-11-14T03:16:18;791.93;;;83.50;;
61640;SDS011;62201;49.966;8.342;2022-11-14T03:18:43;276.37;;;47.73;;
61640;SDS011;62201;49.966;8.342;2022-11-14T03:21:18;225.93;;;46.53;;
61640;SDS011;62201;49.966;8.342;2022-11-14T03:23:45;190.57;;;44.80;;
61640;SDS011;62201;49.966;8.342;2022-11-14T03:26:11;102.17;;;36.07;;
61640;SDS011;62201;49.966;8.342;2022-11-14T03:28:38;82.17;;;32.57;;
61640;SDS011;62201;49.966;8.342;2022-11-14T03:31:03;80.50;;;33.63;;
61640;SDS011;62201;49.966;8.342;2022-11-14T03:33:29;245.57;;;52.07;;
61640;SDS011;62201;49.966;8.342;2022-11-14T03:35:55;88.43;;;35.07;;
61640;SDS011;62201;49.966;8.342;2022-11-14T03:38:21;105.43;;;35.00;;
61640;SDS011;62201;49.966;8.342;2022-11-14T03:40:49;96.47;;;33.53;;
61640;SDS011;62201;49.966;8.342;2022-11-14T03:43:16;106.23;;;37.00;;
61640;SDS011;62201;49.966;8.342;2022-11-14T03:45:42;187.17;;;43.03;;
61640;SDS011;62201;49.966;8.342;2022-11-14T03:48:08;149.20;;;42.30;;
61640;SDS011;62201;49.966;8.342;2022-11-14T03:50:33;152.87;;;41.00;;
61640;SDS011;62201;49.966;8.342;2022-11-14T03:52:58;77.37;;;31.93;;
61640;SDS011;62201;49.966;8.342;2022-11-14T03:55:24;77.57;;;31.67;;
61640;SDS011;62201;49.966;8.342;2022-11-14T03:57:50;109.67;;;36.33;;
61640;SDS011;62201;49.966;8.342;2022-11-14T04:00:15;97.53;;;33.80;;
61640;SDS011;62201;49.966;8.342;2022-11-14T04:02:41;119.57;;;36.83;;
61640;SDS011;62201;49.966;8.342;2022-11-14T04:05:07;85.67;;;33.33;;
61640;SDS011;62201;49.966;8.342;2022-11-14T04:07:32;98.80;;;34.43;;
61640;SDS011;62201;49.966;8.342;2022-11-14T04:09:58;119.70;;;37.00;;
61640;SDS011;62201;49.966;8.342;2022-11-14T04:12:23;90.03;;;34.93;;
61640;SDS011;62201;49.966;8.342;2022-11-14T04:14:49;88.50;;;34.30;;
61640;SDS011;62201;49.966;8.342;2022-11-14T04:17:14;72.63;;;30.50;;
61640;SDS011;62201;49.966;8.342;2022-11-14T04:19:39;70.53;;;29.37;;
61640;SDS011;62201;49.966;8.342;2022-11-14T04:22:05;59.43;;;27.90;;
61640;SDS011;62201;49.966;8.342;2022-11-14T04:24:30;54.93;;;27.17;;
61640;SDS011;62201;49.966;8.342;2022-11-14T04:26:56;74.70;;;30.33;;
61640;SDS011;62201;49.966;8.342;2022-11-14T04:29:21;67.00;;;30.30;;
61640;SDS011;62201;49.966;8.342;2022-11-14T04:31:47;57.00;;;28.37;;
61640;SDS011;62201;49.966;8.342;2022-11-14T04:34:12;46.83;;;25.93;;
61640;SDS011;62201;49.966;8.342;2022-11-14T04:36:38;49.00;;;26.63;;
61640;SDS011;62201;49.966;8.342;2022-11-14T04:39:03;56.10;;;27.73;;
61640;SDS011;62201;49.966;8.342;2022-11-14T04:41:28;50.43;;;27.13;;
61640;SDS011;62201;49.966;8.342;2022-11-14T04:43:54;48.80;;;25.27;;
61640;SDS011;62201;49.966;8.342;2022-11-14T04:46:19;44.63;;;25.53;;
61640;SDS011;62201;49.966;8.342;2022-11-14T04:48:45;45.80;;;24.47;;
61640;SDS011;62201;49.966;8.342;2022-11-14T04:51:10;44.93;;;24.50;;
61640;SDS011;62201;49.966;8.342;2022-11-14T04:53:35;45.60;;;25.00;;
61640;SDS011;62201;49.966;8.342;2022-11-14T04:56:01;49.77;;;27.00;;
61640;SDS011;62201;49.966;8.342;2022-11-14T04:58:26;51.77;;;26.87;;
61640;SDS011;62201;49.966;8.342;2022-11-14T05:00:52;54.13;;;27.33;;
61640;SDS011;62201;49.966;8.342;2022-11-14T05:03:17;50.07;;;26.50;;
61640;SDS011;62201;49.966;8.342;2022-11-14T05:05:43;64.13;;;30.87;;
61640;SDS011;62201;49.966;8.342;2022-11-14T05:08:08;58.57;;;29.73;;
61640;SDS011;62201;49.966;8.342;2022-11-14T05:10:33;54.77;;;28.90;;
61640;SDS011;62201;49.966;8.342;2022-11-14T05:12:59;56.30;;;29.83;;
61640;SDS011;62201;49.966;8.342;2022-11-14T05:15:24;51.63;;;27.23;;
61640;SDS011;62201;49.966;8.342;2022-11-14T05:17:50;48.87;;;26.47;;
61640;SDS011;62201;49.966;8.342;2022-11-14T05:20:16;45.37;;;24.40;;
61640;SDS011;62201;49.966;8.342;2022-11-14T05:22:41;41.63;;;24.10;;
61640;SDS011;62201;49.966;8.342;2022-11-14T05:25:07;44.50;;;24.20;;
61640;SDS011;62201;49.966;8.342;2022-11-14T05:27:33;40.17;;;23.37;;
61640;SDS011;62201;49.966;8.342;2022-11-14T05:29:58;34.57;;;21.73;;
61640;SDS011;62201;49.966;8.342;2022-11-14T05:32:24;34.17;;;20.67;;
61640;SDS011;62201;49.966;8.342;2022-11-14T05:34:49;31.10;;;19.20;;
61640;SDS011;62201;49.966;8.342;2022-11-14T05:37:15;31.40;;;19.53;;
61640;SDS011;62201;49.966;8.342;2022-11-14T05:39:40;25.90;;;17.70;;
61640;SDS011;62201;49.966;8.342;2022-11-14T05:42:05;26.97;;;17.60;;
61640;SDS011;62201;49.966;8.342;2022-11-14T05:44:31;30.77;;;18.23;;
61640;SDS011;62201;49.966;8.342;2022-11-14T05:46:56;27.07;;;16.87;;
61640;SDS011;62201;49.966;8.342;2022-11-14T05:49:22;23.83;;;16.47;;
61640;SDS011;62201;49.966;8.342;2022-11-14T05:51:47;26.20;;;17.13;;
61640;SDS011;62201;49.966;8.342;2022-11-14T05:54:13;28.33;;;17.87;;
61640;SDS011;62201;49.966;8.342;2022-11-14T05:56:38;31.90;;;18.20;;
61640;SDS011;62201;49.966;8.342;2022-11-14T05:59:03;28.47;;;18.37;;
61640;SDS011;62201;49.966;8.342;2022-11-14T06:01:29;31.70;;;19.53;;
61640;SDS011;62201;49.966;8.342;2022-11-14T06:03:54;32.70;;;19.50;;
61640;SDS011;62201;49.966;8.342;2022-11-14T06:06:20;36.17;;;19.53;;
61640;SDS011;62201;49.966;8.342;2022-11-14T06:08:46;35.20;;;20.83;;
61640;SDS011;62201;49.966;8.342;2022-11-14T06:13:44;31.80;;;19.07;;
61640;SDS011;62201;49.966;8.342;2022-11-14T06:16:11;35.53;;;19.47;;
61640;SDS011;62201;49.966;8.342;2022-11-14T06:18:37;36.20;;;19.57;;
61640;SDS011;62201;49.966;8.342;2022-11-14T06:21:05;36.83;;;20.43;;
61640;SDS011;62201;49.966;8.342;2022-11-14T06:23:34;34.80;;;19.77;;
61640;SDS011;62201;49.966;8.342;2022-11-14T06:26:00;34.93;;;19.97;;
61640;SDS011;62201;49.966;8.342;2022-11-14T06:28:27;29.17;;;17.67;;
61640;SDS011;62201;49.966;8.342;2022-11-14T06:30:58;27.13;;;17.63;;
61640;SDS011;62201;49.966;8.342;2022-11-14T06:33:25;24.47;;;16.20;;
61640;SDS011;62201;49.966;8.342;2022-11-14T06:35:55;27.43;;;17.60;;
61640;SDS011;62201;49.966;8.342;2022-11-14T06:38:24;27.70;;;16.67;;
61640;SDS011;62201;49.966;8.342;2022-11-14T06:40:50;24.00;;;15.77;;
61640;SDS011;62201;49.966;8.342;2022-11-14T06:43:16;38.57;;;21.77;;
61640;SDS011;62201;49.966;8.342;2022-11-14T06:45:42;24.83;;;15.50;;
61640;SDS011;62201;49.966;8.342;2022-11-14T06:48:07;26.13;;;19.33;;
61640;SDS011;62201;49.966;8.342;2022-11-14T06:50:33;36.97;;;28.50;;
61640;SDS011;62201;49.966;8.342;2022-11-14T06:52:58;26.73;;;18.30;;
61640;SDS011;62201;49.966;8.342;2022-11-14T06:55:24;24.17;;;16.93;;
61640;SDS011;62201;49.966;8.342;2022-11-14T06:57:52;23.13;;;16.07;;
61640;SDS011;62201;49.966;8.342;2022-11-14T07:00:19;21.53;;;15.07;;
61640;SDS011;62201;49.966;8.342;2022-11-14T07:02:46;22.03;;;16.00;;
61640;SDS011;62201;49.966;8.342;2022-11-14T07:05:11;26.83;;;18.00;;
61640;SDS011;62201;49.966;8.342;2022-11-14T07:07:37;26.20;;;15.53;;
61640;SDS011;62201;49.966;8.342;2022-11-14T07:10:02;28.23;;;16.27;;
61640;SDS011;62201;49.966;8.342;2022-11-14T07:12:28;24.17;;;16.47;;
61640;SDS011;62201;49.966;8.342;2022-11-14T07:14:53;23.30;;;15.57;;
61640;SDS011;62201;49.966;8.342;2022-11-14T07:17:19;24.83;;;16.43;;
61640;SDS011;62201;49.966;8.342;2022-11-14T07:19:44;26.67;;;16.33;;
61640;SDS011;62201;49.966;8.342;2022-11-14T07:22:10;27.73;;;16.33;;
61640;SDS011;62201;49.966;8.342;2022-11-14T07:24:35;25.53;;;15.53;;
61640;SDS011;62201;49.966;8.342;2022-11-14T07:27:01;25.80;;;16.30;;
61640;SDS011;62201;49.966;8.342;2022-11-14T07:29:26;27.80;;;16.30;;
61640;SDS011;62201;49.966;8.342;2022-11-14T07:31:52;25.67;;;17.10;;
61640;SDS011;62201;49.966;8.342;2022-11-14T07:34:17;22.37;;;15.40;;
61640;SDS011;62201;49.966;8.342;2022-11-14T07:36:43;22.30;;;15.80;;
61640;SDS011;62201;49.966;8.342;2022-11-14T07:39:09;25.07;;;16.00;;
61640;SDS011;62201;49.966;8.342;2022-11-14T07:41:34;22.17;;;15.17;;
61640;SDS011;62201;49.966;8.342;2022-11-14T07:43:59;24.53;;;15.97;;
61640;SDS011;62201;49.966;8.342;2022-11-14T07:46:25;22.17;;;15.40;;
61640;SDS011;62201;49.966;8.342;2022-11-14T07:48:50;21.93;;;14.73;;
61640;SDS011;62201;49.966;8.342;2022-11-14T07:51:16;21.67;;;14.93;;
61640;SDS011;62201;49.966;8.342;2022-11-14T07:53:43;24.07;;;15.63;;
61640;SDS011;62201;49.966;8.342;2022-11-14T07:56:09;24.43;;;15.63;;
61640;SDS011;62201;49.966;8.342;2022-11-14T07:58:35;23.17;;;15.80;;
61640;SDS011;62201;49.966;8.342;2022-11-14T08:01:02;21.90;;;15.37;;
61640;SDS011;62201;49.966;8.342;2022-11-14T08:03:29;24.90;;;15.93;;
61640;SDS011;62201;49.966;8.342;2022-11-14T08:06:01;25.50;;;16.77;;
61640;SDS011;62201;49.966;8.342;2022-11-14T08:08:28;24.57;;;15.93;;
61640;SDS011;62201;49.966;8.342;2022-11-14T08:10:55;25.83;;;16.63;;
61640;SDS011;62201;49.966;8.342;2022-11-14T08:13:22;24.37;;;16.53;;
61640;SDS011;62201;49.966;8.342;2022-11-14T08:15:47;24.10;;;16.50;;
61640;SDS011;62201;49.966;8.342;2022-11-14T08:18:12;26.43;;;17.67;;
61640;SDS011;62201;49.966;8.342;2022-11-14T08:20:38;30.17;;;18.07;;
61640;SDS011;62201;49.966;8.342;2022-11-14T08:23:04;32.80;;;18.37;;
61640;SDS011;62201;49.966;8.342;2022-11-14T08:25:31;40.77;;;21.53;;
61640;SDS011;62201;49.966;8.342;2022-11-14T08:27:56;32.93;;;19.00;;
61640;SDS011;62201;49.966;8.342;2022-11-14T08:30:22;29.60;;;18.10;;
61640;SDS011;62201;49.966;8.342;2022-11-14T08:32:47;31.90;;;21.53;;
61640;SDS011;62201;49.966;8.342;2022-11-14T08:35:12;24.47;;;16.87;;
61640;SDS011;62201;49.966;8.342;2022-11-14T08:37:38;27.47;;;18.37;;
61640;SDS011;62201;49.966;8.342;2022-11-14T08:40:03;27.13;;;18.10;;
61640;SDS011;62201;49.966;8.342;2022-11-14T08:42:30;28.47;;;18.63;;
61640;SDS011;62201;49.966;8.342;2022-11-14T08:44:55;26.30;;;18.27;;
61640;SDS011;62201;49.966;8.342;2022-11-14T08:47:21;31.13;;;20.43;;
61640;SDS011;62201;49.966;8.342;2022-11-14T08:49:46;35.53;;;21.53;;
61640;SDS011;62201;49.966;8.342;2022-11-14T08:52:11;37.27;;;23.20;;
61640;SDS011;62201;49.966;8.342;2022-11-14T08:54:37;34.53;;;21.67;;
61640;SDS011;62201;49.966;8.342;2022-11-14T08:57:02;38.13;;;22.33;;
61640;SDS011;62201;49.966;8.342;2022-11-14T08:59:29;38.80;;;21.77;;
61640;SDS011;62201;49.966;8.342;2022-11-14T09:01:55;34.47;;;21.57;;
61640;SDS011;62201;49.966;8.342;2022-11-14T09:04:20;36.40;;;21.03;;
61640;SDS011;62201;49.966;8.342;2022-11-14T09:06:46;31.57;;;19.43;;
61640;SDS011;62201;49.966;8.342;2022-11-14T09:09:11;39.40;;;20.60;;
61640;SDS011;62201;49.966;8.342;2022-11-14T09:11:37;32.30;;;20.37;;
61640;SDS011;62201;49.966;8.342;2022-11-14T09:14:02;36.67;;;22.47;;
61640;SDS011;62201;49.966;8.342;2022-11-14T09:16:28;35.10;;;22.03;;
61640;SDS011;62201;49.966;8.342;2022-11-14T09:18:53;33.67;;;19.60;;
61640;SDS011;62201;49.966;8.342;2022-11-14T09:21:19;41.90;;;28.30;;
61640;SDS011;62201;49.966;8.342;2022-11-14T09:23:45;47.37;;;33.47;;
61640;SDS011;62201;49.966;8.342;2022-11-14T09:26:11;61.70;;;40.47;;
61640;SDS011;62201;49.966;8.342;2022-11-14T09:28:37;63.87;;;40.80;;
61640;SDS011;62201;49.966;8.342;2022-11-14T09:31:03;49.97;;;30.43;;
61640;SDS011;62201;49.966;8.342;2022-11-14T09:33:37;71.77;;;50.00;;
61640;SDS011;62201;49.966;8.342;2022-11-14T09:36:03;34.13;;;22.63;;
61640;SDS011;62201;49.966;8.342;2022-11-14T09:38:30;39.27;;;24.70;;
61640;SDS011;62201;49.966;8.342;2022-11-14T09:40:59;30.10;;;19.27;;
61640;SDS011;62201;49.966;8.342;2022-11-14T09:46:10;29.93;;;20.43;;
61640;SDS011;62201;49.966;8.342;2022-11-14T09:48:48;28.53;;;18.37;;
61640;SDS011;62201;49.966;8.342;2022-11-14T09:51:20;30.53;;;20.50;;
61640;SDS011;62201;49.966;8.342;2022-11-14T09:54:05;30.87;;;16.20;;
61640;SDS011;62201;49.966;8.342;2022-11-14T09:56:37;34.50;;;23.13;;
61640;SDS011;62201;49.966;8.342;2022-11-14T09:59:02;26.47;;;17.80;;
61640;SDS011;62201;49.966;8.342;2022-11-14T10:01:35;26.10;;;18.27;;
61640;SDS011;62201;49.966;8.342;2022-11-14T10:04:23;26.30;;;17.67;;
61640;SDS011;62201;49.966;8.342;2022-11-14T10:10:06;35.33;;;26.08;;
61640;SDS011;62201;49.966;8.342;2022-11-14T10:12:56;25.75;;;17.30;;
61640;SDS011;62201;49.966;8.342;2022-11-14T10:15:29;28.93;;;19.70;;
61640;SDS011;62201;49.966;8.342;2022-11-14T10:18:25;26.83;;;17.35;;
61640;SDS011;62201;49.966;8.342;2022-11-14T10:21:08;26.25;;;16.38;;
61640;SDS011;62201;49.966;8.342;2022-11-14T10:26:37;26.30;;;17.88;;
61640;SDS011;62201;49.966;8.342;2022-11-14T10:34:26;23.67;;;17.08;;
61640;SDS011;62201;49.966;8.342;2022-11-14T10:37:24;36.67;;;25.88;;
61640;SDS011;62201;49.966;8.342;2022-11-14T10:39:54;21.58;;;15.80;;
61640;SDS011;62201;49.966;8.342;2022-11-14T10:42:28;21.38;;;14.15;;
61640;SDS011;62201;49.966;8.342;2022-11-14T10:45:20;18.42;;;13.48;;
61640;SDS011;62201;49.966;8.342;2022-11-14T10:47:51;19.98;;;14.52;;
61640;SDS011;62201;49.966;8.342;2022-11-14T10:50:27;22.40;;;16.10;;
61640;SDS011;62201;49.966;8.342;2022-11-14T10:53:09;20.40;;;14.90;;
61640;SDS011;62201;49.966;8.342;2022-11-14T10:55:43;19.52;;;14.57;;
61640;SDS011;62201;49.966;8.342;2022-11-14T10:58:13;21.27;;;12.52;;
61640;SDS011;62201;49.966;8.342;2022-11-14T11:00:39;17.17;;;12.80;;
61640;SDS011;62201;49.966;8.342;2022-11-14T11:03:06;20.05;;;14.60;;
61640;SDS011;62201;49.966;8.342;2022-11-14T11:05:31;18.30;;;13.93;;
61640;SDS011;62201;49.966;8.342;2022-11-14T11:08:11;15.52;;;12.00;;
61640;SDS011;62201;49.966;8.342;2022-11-14T11:10:57;19.02;;;12.73;;
61640;SDS011;62201;49.966;8.342;2022-11-14T11:13:48;25.67;;;20.38;;
61640;SDS011;62201;49.966;8.342;2022-11-14T11:16:18;17.63;;;11.55;;
61640;SDS011;62201;49.966;8.342;2022-11-14T11:18:45;19.05;;;12.35;;
61640;SDS011;62201;49.966;8.342;2022-11-14T11:21:12;15.02;;;11.45;;
61640;SDS011;62201;49.966;8.342;2022-11-14T11:23:52;14.23;;;10.50;;
61640;SDS011;62201;49.966;8.342;2022-11-14T11:26:29;15.98;;;12.02;;
61640;SDS011;62201;49.966;8.342;2022-11-14T11:29:00;13.75;;;10.93;;
61640;SDS011;62201;49.966;8.342;2022-11-14T11:31:43;17.45;;;11.57;;
61640;SDS011;62201;49.966;8.342;2022-11-14T11:34:21;18.83;;;11.45;;
61640;SDS011;62201;49.966;8.342;2022-11-14T11:37:01;14.48;;;10.43;;
61640;SDS011;62201;49.966;8.342;2022-11-14T11:39:34;17.52;;;11.80;;
61640;SDS011;62201;49.966;8.342;2022-11-14T11:42:06;13.80;;;10.88;;
61640;SDS011;62201;49.966;8.342;2022-11-14T11:44:38;19.98;;;12.57;;
61640;SDS011;62201;49.966;8.342;2022-11-14T11:47:08;14.55;;;10.85;;
61640;SDS011;62201;49.966;8.342;2022-11-14T11:55:02;18.00;;;11.85;;
61640;SDS011;62201;49.966;8.342;2022-11-14T11:57:41;10.98;;;9.18;;
61640;SDS011;62201;49.966;8.342;2022-11-14T12:00:19;15.20;;;11.07;;
61640;SDS011;62201;49.966;8.342;2022-11-14T12:02:46;15.07;;;11.20;;
61640;SDS011;62201;49.966;8.342;2022-11-14T12:05:15;19.13;;;12.07;;
61640;SDS011;62201;49.966;8.342;2022-11-14T12:07:47;15.88;;;11.02;;
61640;SDS011;62201;49.966;8.342;2022-11-14T12:10:22;12.10;;;9.65;;
61640;SDS011;62201;49.966;8.342;2022-11-14T12:15:30;17.45;;;11.48;;
61640;SDS011;62201;49.966;8.342;2022-11-14T12:23:29;14.38;;;9.75;;
61640;SDS011;62201;49.966;8.342;2022-11-14T12:31:48;11.30;;;8.95;;
61640;SDS011;62201;49.966;8.342;2022-11-14T12:34:24;12.40;;;9.38;;
61640;SDS011;62201;49.966;8.342;2022-11-14T12:36:55;14.43;;;9.23;;
61640;SDS011;62201;49.966;8.342;2022-11-14T12:39:23;14.23;;;8.95;;
61640;SDS011;62201;49.966;8.342;2022-11-14T12:41:50;14.70;;;9.38;;
61640;SDS011;62201;49.966;8.342;2022-11-14T12:49:35;12.18;;;8.73;;
61640;SDS011;62201;49.966;8.342;2022-11-14T12:52:02;13.82;;;8.65;;
61640;SDS011;62201;49.966;8.342;2022-11-14T12:54:49;14.05;;;9.02;;
61640;SDS011;62201;49.966;8.342;2022-11-14T12:57:19;14.85;;;9.07;;
61640;SDS011;62201;49.966;8.342;2022-11-14T13:00:13;11.98;;;8.90;;
61640;SDS011;62201;49.966;8.342;2022-11-14T13:02:48;12.73;;;9.25;;
61640;SDS011;62201;49.966;8.342;2022-11-14T13:10:46;13.05;;;8.82;;
61640;SDS011;62201;49.966;8.342;2022-11-14T13:13:12;16.08;;;8.82;;
61640;SDS011;62201;49.966;8.342;2022-11-14T13:16:02;11.65;;;9.23;;
61640;SDS011;62201;49.966;8.342;2022-11-14T13:22:16;19.65;;;11.15;;
61640;SDS011;62201;49.966;8.342;2022-11-14T13:27:27;16.33;;;10.90;;
61640;SDS011;62201;49.966;8.342;2022-11-14T13:29:55;14.73;;;9.82;;
61640;SDS011;62201;49.966;8.342;2022-11-14T13:52:27;20.02;;;12.35;;
61640;SDS011;62201;49.966;8.342;2022-11-14T13:54:56;20.38;;;15.40;;
61640;SDS011;62201;49.966;8.342;2022-11-14T14:00:07;13.23;;;9.52;;
61640;SDS011;62201;49.966;8.342;2022-11-14T14:16:03;16.48;;;8.80;;
61640;SDS011;62201;49.966;8.342;2022-11-14T14:30:02;13.20;;;8.60;;
61640;SDS011;62201;49.966;8.342;2022-11-14T14:32:35;14.48;;;8.93;;
61640;SDS011;62201;49.966;8.342;2022-11-14T14:37:50;13.02;;;9.15;;
61640;SDS011;62201;49.966;8.342;2022-11-14T14:40:24;19.67;;;9.57;;
61640;SDS011;62201;49.966;8.342;2022-11-14T14:42:52;12.25;;;9.85;;
61640;SDS011;62201;49.966;8.342;2022-11-14T14:45:19;16.08;;;9.38;;
61640;SDS011;62201;49.966;8.342;2022-11-14T14:47:48;17.67;;;9.73;;
61640;SDS011;62201;49.966;8.342;2022-11-14T14:52:55;17.83;;;9.70;;
61640;SDS011;62201;49.966;8.342;2022-11-14T14:55:29;12.98;;;9.20;;
61640;SDS011;62201;49.966;8.342;2022-11-14T14:58:15;13.63;;;9.45;;
61640;SDS011;62201;49.966;8.342;2022-11-14T15:00:51;12.27;;;9.52;;
61640;SDS011;62201;49.966;8.342;2022-11-14T15:03:17;17.70;;;10.85;;
61640;SDS011;62201;49.966;8.342;2022-11-14T15:05:43;13.27;;;9.95;;
61640;SDS011;62201;49.966;8.342;2022-11-14T15:08:11;14.27;;;9.85;;
61640;SDS011;62201;49.966;8.342;2022-11-14T15:10:39;14.77;;;9.25;;
61640;SDS011;62201;49.966;8.342;2022-11-14T15:13:06;15.48;;;9.38;;
61640;SDS011;62201;49.966;8.342;2022-11-14T15:15:35;18.98;;;10.02;;
61640;SDS011;62201;49.966;8.342;2022-11-14T15:18:03;14.88;;;9.38;;
61640;SDS011;62201;49.966;8.342;2022-11-14T15:20:31;19.20;;;9.80;;
61640;SDS011;62201;49.966;8.342;2022-11-14T15:25:29;19.98;;;10.02;;
61640;SDS011;62201;49.966;8.342;2022-11-14T15:27:55;19.98;;;10.05;;
61640;SDS011;62201;49.966;8.342;2022-11-14T15:30:31;17.55;;;11.18;;
61640;SDS011;62201;49.966;8.342;2022-11-14T15:33:02;19.27;;;12.48;;
61640;SDS011;62201;49.966;8.342;2022-11-14T15:35:30;14.25;;;9.88;;
61640;SDS011;62201;49.966;8.342;2022-11-14T15:40:36;12.57;;;8.25;;
61640;SDS011;62201;49.966;8.342;2022-11-14T15:48:52;9.93;;;7.28;;
61640;SDS011;62201;49.966;8.342;2022-11-14T15:51:18;10.82;;;7.47;;
61640;SDS011;62201;49.966;8.342;2022-11-14T15:54:01;11.10;;;7.47;;
61640;SDS011;62201;49.966;8.342;2022-11-14T15:56:26;11.35;;;7.32;;
61640;SDS011;62201;49.966;8.342;2022-11-14T15:58:52;11.05;;;7.45;;
61640;SDS011;62201;49.966;8.342;2022-11-14T16:01:21;11.15;;;7.03;;
61640;SDS011;62201;49.966;8.342;2022-11-14T16:03:48;11.00;;;7.80;;
61640;SDS011;62201;49.966;8.342;2022-11-14T16:06:15;10.98;;;7.18;;
61640;SDS011;62201;49.966;8.342;2022-11-14T16:08:41;13.48;;;7.43;;
61640;SDS011;62201;49.966;8.342;2022-11-14T16:11:06;12.60;;;7.57;;
61640;SDS011;62201;49.966;8.342;2022-11-14T16:13:32;11.35;;;7.53;;
61640;SDS011;62201;49.966;8.342;2022-11-14T16:15:57;12.75;;;7.82;;
61640;SDS011;62201;49.966;8.342;2022-11-14T16:18:22;10.77;;;7.75;;
61640;SDS011;62201;49.966;8.342;2022-11-14T16:20:48;9.48;;;7.47;;
61640;SDS011;62201;49.966;8.342;2022-11-14T16:23:15;10.43;;;7.88;;
61640;SDS011;62201;49.966;8.342;2022-11-14T16:25:40;13.52;;;7.35;;